createdAt,value
2022-08-10T00:01:38.745Z,1.80
2022-08-10T00:04:06.699Z,1.90
2022-08-10T00:06:36.033Z,2.00
2022-08-10T00:09:04.158Z,1.98
2022-08-10T00:11:32.005Z,2.10
2022-08-10T00:13:59.805Z,1.83
2022-08-10T00:16:28.552Z,2.22
2022-08-10T00:18:56.339Z,2.00
2022-08-10T00:21:24.357Z,1.85
2022-08-10T00:23:56.516Z,1.92
2022-08-10T00:26:24.319Z,1.80
2022-08-10T00:28:52.429Z,1.83
2022-08-10T00:31:20.279Z,1.92
2022-08-10T00:33:48.065Z,2.00
2022-08-10T00:36:15.869Z,1.73
2022-08-10T00:38:43.768Z,1.85
2022-08-10T00:41:12.874Z,2.20
2022-08-10T00:43:40.686Z,2.00
2022-08-10T00:46:08.495Z,2.00
2022-08-10T00:48:36.274Z,2.08
2022-08-10T00:51:04.254Z,2.05
2022-08-10T00:53:32.180Z,2.28
2022-08-10T00:57:14.485Z,2.20
2022-08-10T00:58:49.660Z,2.17
2022-08-10T01:02:07.714Z,1.92
2022-08-10T01:04:57.501Z,2.10
2022-08-10T01:07:08.415Z,1.92
2022-08-10T01:09:44.608Z,1.90
2022-08-10T01:12:39.817Z,2.40
2022-08-10T01:15:20.026Z,2.17
2022-08-10T01:17:54.896Z,2.10
2022-08-10T01:20:30.718Z,1.98
2022-08-10T01:23:35.648Z,2.05
2022-08-10T01:26:31.499Z,2.10
2022-08-10T01:29:17.760Z,2.20
2022-08-10T01:31:52.034Z,2.50
2022-08-10T01:34:24.674Z,2.25
2022-08-10T01:36:57.102Z,2.30
2022-08-10T01:39:29.375Z,2.10
2022-08-10T01:41:59.746Z,2.40
2022-08-10T01:44:33.384Z,2.53
2022-08-10T01:47:27.370Z,2.05
2022-08-10T01:50:02.998Z,2.30
2022-08-10T01:52:33.922Z,2.00
2022-08-10T01:55:01.797Z,2.15
2022-08-10T01:57:34.273Z,2.45
2022-08-10T02:00:03.635Z,2.47
2022-08-10T02:02:37.663Z,2.30
2022-08-10T02:05:07.526Z,2.25
2022-08-10T02:07:38.034Z,2.30
2022-08-10T02:10:11.903Z,2.10
2022-08-10T02:12:42.003Z,2.55
2022-08-10T02:15:15.958Z,2.15
2022-08-10T02:17:57.798Z,2.33
2022-08-10T02:20:34.694Z,2.55
2022-08-10T02:23:06.194Z,2.20
2022-08-10T02:25:41.190Z,2.55
2022-08-10T02:28:27.264Z,2.08
2022-08-10T02:31:02.455Z,2.53
2022-08-10T02:33:37.332Z,2.47
2022-08-10T02:36:08.700Z,2.60
2022-08-10T02:38:58.563Z,2.35
2022-08-10T02:45:03.202Z,2.38
2022-08-10T02:45:23.509Z,2.88
2022-08-10T02:47:23.116Z,2.80
2022-08-10T02:49:58.611Z,2.47
2022-08-10T02:52:36.281Z,2.40
2022-08-10T02:55:17.826Z,2.55
2022-08-10T02:58:12.746Z,2.42
2022-08-10T03:00:45.389Z,2.58
2022-08-10T03:03:19.376Z,2.22
2022-08-10T03:05:52.150Z,2.67
2022-08-10T03:08:22.483Z,2.60
2022-08-10T03:10:51.999Z,2.58
2022-08-10T03:13:21.656Z,2.80
2022-08-10T03:15:52.415Z,2.95
2022-08-10T03:18:22.771Z,2.70
2022-08-10T03:20:55.128Z,3.03
2022-08-10T03:23:24.804Z,2.42
2022-08-10T03:25:55.018Z,2.70
2022-08-10T03:28:24.665Z,2.65
2022-08-10T03:30:53.782Z,2.85
2022-08-10T03:33:23.322Z,2.85
2022-08-10T03:36:41.985Z,2.92
2022-08-10T03:38:41.488Z,2.70
2022-08-10T03:43:47.856Z,2.78
2022-08-10T03:46:19.277Z,2.60
2022-08-10T03:48:50.040Z,3.05
2022-08-10T03:51:20.926Z,2.80
2022-08-10T03:54:04.604Z,2.63
2022-08-10T03:56:36.714Z,2.75
2022-08-10T03:59:05.835Z,2.72
2022-08-10T04:02:45.115Z,3.35
2022-08-10T04:04:24.604Z,3.05
2022-08-10T04:06:56.270Z,3.00
2022-08-10T04:09:43.088Z,3.25
2022-08-10T04:12:14.187Z,3.17
2022-08-10T04:14:49.587Z,3.28
2022-08-10T04:17:18.410Z,3.67
2022-08-10T04:20:08.962Z,2.97
2022-08-10T04:22:39.250Z,3.20
2022-08-10T04:25:09.326Z,3.00
2022-08-10T04:27:37.366Z,3.22
2022-08-10T04:30:06.127Z,3.22
2022-08-10T04:32:35.353Z,3.10
2022-08-10T04:35:05.707Z,3.38
2022-08-10T04:37:37.317Z,3.38
2022-08-10T04:40:28.587Z,3.45
2022-08-10T04:43:09.071Z,3.45
2022-08-10T04:45:49.889Z,3.40
2022-08-10T04:48:42.365Z,3.53
2022-08-10T04:51:08.077Z,3.65
2022-08-10T04:54:05.317Z,3.42
2022-08-10T04:56:31.835Z,3.47
2022-08-10T04:59:00.237Z,3.65
2022-08-10T05:02:22.689Z,3.78
2022-08-10T05:04:36.231Z,4.35
2022-08-10T05:07:04.101Z,4.07
2022-08-10T05:09:31.990Z,4.35
2022-08-10T05:12:01.174Z,4.85
2022-08-10T05:14:29.359Z,4.25
2022-08-10T05:16:57.195Z,5.32
2022-08-10T05:20:04.007Z,4.13
2022-08-10T05:22:13.985Z,5.03
2022-08-10T05:24:41.765Z,4.40
2022-08-10T05:27:11.025Z,4.40
2022-08-10T05:29:39.159Z,4.72
2022-08-10T05:32:07.707Z,4.80
2022-08-10T05:34:35.548Z,5.35
2022-08-10T05:37:04.130Z,5.45
2022-08-10T05:39:33.409Z,5.47
2022-08-10T05:42:02.909Z,6.00
2022-08-10T05:44:32.200Z,5.60
2022-08-10T05:47:00.019Z,4.75
2022-08-10T05:49:27.918Z,5.85
2022-08-10T05:51:55.797Z,5.40
2022-08-10T05:54:25.550Z,5.60
2022-08-10T05:56:58.034Z,5.43
2022-08-10T06:00:29.296Z,4.70
2022-08-10T06:02:41.768Z,4.53
2022-08-10T06:05:11.847Z,4.78
2022-08-10T06:07:42.308Z,4.65
2022-08-10T06:10:14.508Z,4.07
2022-08-10T06:13:26.590Z,4.45
2022-08-10T06:15:59.965Z,4.60
2022-08-10T06:18:29.123Z,3.85
2022-08-10T06:20:58.500Z,3.80
2022-08-10T06:23:29.469Z,3.08
2022-08-10T06:26:10.865Z,3.30
2022-08-10T06:28:59.029Z,3.00
2022-08-10T06:31:46.834Z,2.80
2022-08-10T06:34:21.973Z,3.25
2022-08-10T06:36:50.821Z,3.30
2022-08-10T06:39:35.475Z,2.90
2022-08-10T06:42:17.675Z,3.40
2022-08-10T06:44:55.543Z,3.20
2022-08-10T06:47:26.599Z,3.17
2022-08-10T06:50:02.676Z,3.33
2022-08-10T06:52:34.274Z,3.20
2022-08-10T06:55:05.264Z,3.03
2022-08-10T06:57:38.486Z,3.10
2022-08-10T07:00:09.260Z,3.08
2022-08-10T07:02:45.341Z,3.15
2022-08-10T07:05:20.039Z,2.97
2022-08-10T07:07:48.956Z,3.40
2022-08-10T07:10:20.451Z,3.63
2022-08-10T07:12:49.512Z,3.38
2022-08-10T07:15:18.589Z,3.53
2022-08-10T07:17:47.887Z,3.40
2022-08-10T07:20:19.451Z,3.25
2022-08-10T07:23:08.361Z,2.83
2022-08-10T07:25:38.988Z,3.30
2022-08-10T07:28:08.299Z,2.90
2022-08-10T07:30:39.539Z,3.05
2022-08-10T07:33:09.474Z,3.33
2022-08-10T07:35:43.034Z,3.28
2022-08-10T07:38:17.002Z,2.85
2022-08-10T07:40:46.286Z,3.00
2022-08-10T07:43:16.926Z,2.60
2022-08-10T07:45:47.208Z,3.45
2022-08-10T07:48:17.884Z,3.08
2022-08-10T07:50:48.819Z,2.78
2022-08-10T07:53:22.519Z,3.28
2022-08-10T07:56:05.642Z,3.05
2022-08-10T07:58:46.397Z,2.72
2022-08-10T08:01:22.329Z,2.70
2022-08-10T08:04:10.919Z,2.85
2022-08-10T08:06:42.444Z,2.85
2022-08-10T08:09:11.290Z,2.97
2022-08-10T08:11:40.823Z,3.10
2022-08-10T08:14:10.210Z,2.67
2022-08-10T08:16:40.455Z,2.80
2022-08-10T08:19:26.613Z,2.85
2022-08-10T08:24:06.053Z,3.10
2022-08-10T08:24:47.821Z,2.92
2022-08-10T08:27:21.038Z,2.30
2022-08-10T08:29:50.769Z,2.80
2022-08-10T08:32:22.251Z,3.00
2022-08-10T08:34:53.895Z,2.70
2022-08-10T08:38:31.604Z,3.17
2022-08-10T08:40:16.215Z,3.00
2022-08-10T08:43:16.704Z,2.60
2022-08-10T08:46:04.521Z,2.90
2022-08-10T08:48:56.412Z,3.08
2022-08-10T08:52:09.382Z,3.00
2022-08-10T08:54:37.999Z,3.05
2022-08-10T08:57:12.296Z,3.20
2022-08-10T09:00:02.203Z,3.28
2022-08-10T09:02:42.174Z,3.10
2022-08-10T09:05:24.777Z,2.88
2022-08-10T09:08:15.149Z,2.97
2022-08-10T09:10:53.616Z,2.35
2022-08-10T09:13:29.372Z,2.55
2022-08-10T09:16:21.773Z,2.50
2022-08-10T09:18:54.346Z,2.50
2022-08-10T09:21:29.225Z,2.80
2022-08-10T09:24:05.861Z,2.83
2022-08-10T09:26:43.815Z,2.45
2022-08-10T09:29:16.088Z,2.72
2022-08-10T09:31:55.930Z,2.30
2022-08-10T09:36:20.698Z,2.60
2022-08-10T09:38:01.734Z,2.63
2022-08-10T09:40:58.919Z,2.78
2022-08-10T09:43:41.394Z,2.53
2022-08-10T09:46:21.427Z,2.78
2022-08-10T09:49:03.071Z,2.80
2022-08-10T09:51:47.375Z,2.92
2022-08-10T09:54:28.273Z,2.33
2022-08-10T09:57:43.291Z,2.30
2022-08-10T10:00:01.332Z,2.90
2022-08-10T10:02:43.207Z,2.85
2022-08-10T10:05:22.741Z,2.53
2022-08-10T10:07:58.399Z,2.70
2022-08-10T10:10:36.325Z,2.80
2022-08-10T10:13:52.925Z,2.53
2022-08-10T10:16:26.964Z,2.65
2022-08-10T10:19:05.761Z,3.05
2022-08-10T10:21:55.625Z,2.60
2022-08-10T10:24:34.161Z,2.72
2022-08-10T10:27:16.377Z,3.03
2022-08-10T10:29:56.748Z,3.17
2022-08-10T10:32:40.092Z,2.40
2022-08-10T10:35:16.627Z,2.30
2022-08-10T10:38:01.275Z,2.40
2022-08-10T10:40:38.812Z,2.47
2022-08-10T10:43:16.529Z,2.70
2022-08-10T10:45:55.064Z,2.65
2022-08-10T10:48:33.968Z,2.47
2022-08-10T10:51:10.834Z,2.40
2022-08-10T10:53:48.620Z,2.80
2022-08-10T10:56:21.771Z,2.30
2022-08-10T10:59:54.043Z,2.63
2022-08-10T11:02:00.769Z,2.30
2022-08-10T11:04:41.471Z,2.83
2022-08-10T11:07:21.940Z,2.10
2022-08-10T11:10:09.431Z,2.30
2022-08-10T11:13:03.794Z,2.78
2022-08-10T11:15:58.589Z,2.13
2022-08-10T11:18:34.245Z,2.30
2022-08-10T11:21:13.567Z,2.42
2022-08-10T11:24:47.146Z,2.33
2022-08-10T11:26:53.584Z,2.30
2022-08-10T11:29:26.439Z,2.35
2022-08-10T11:32:01.123Z,2.80
2022-08-10T11:34:48.475Z,2.40
2022-08-10T11:38:29.620Z,2.35
2022-08-10T11:40:36.544Z,2.30
2022-08-10T11:43:14.345Z,2.33
2022-08-10T11:45:51.563Z,2.05
2022-08-10T11:48:53.038Z,2.38
2022-08-10T11:51:23.869Z,2.50
2022-08-10T11:54:03.317Z,2.30
2022-08-10T11:56:35.306Z,2.33
2022-08-10T11:59:20.764Z,2.60
2022-08-10T12:01:51.511Z,2.65
2022-08-10T12:04:21.436Z,2.15
2022-08-10T12:06:56.324Z,2.25
2022-08-10T12:10:05.016Z,2.20
2022-08-10T12:12:17.484Z,2.13
2022-08-10T12:14:54.314Z,2.42
2022-08-10T12:17:30.085Z,2.30
2022-08-10T12:20:05.410Z,2.20
2022-08-10T12:22:39.677Z,2.28
2022-08-10T12:25:54.996Z,2.47
2022-08-10T12:28:10.636Z,2.20
2022-08-10T12:30:47.641Z,2.58
2022-08-10T12:33:23.545Z,2.15
2022-08-10T12:36:18.011Z,2.15
2022-08-10T12:38:54.002Z,1.92
2022-08-10T12:41:45.031Z,2.10
2022-08-10T12:44:20.106Z,2.25
2022-08-10T12:46:56.118Z,2.40
2022-08-10T12:49:31.619Z,2.53
2022-08-10T12:52:04.030Z,2.38
2022-08-10T12:54:36.707Z,2.33
2022-08-10T12:57:10.046Z,2.58
2022-08-10T12:59:43.184Z,2.20
2022-08-10T13:02:15.146Z,2.53
2022-08-10T13:04:44.267Z,2.45
2022-08-10T13:08:03.723Z,2.63
2022-08-10T13:10:03.938Z,2.50
2022-08-10T13:12:40.333Z,2.63
2022-08-10T13:15:25.348Z,2.08
2022-08-10T13:18:17.898Z,2.40
2022-08-10T13:20:52.451Z,2.03
2022-08-10T13:23:24.531Z,2.15
2022-08-10T13:25:56.097Z,2.20
2022-08-10T13:28:39.445Z,2.20
2022-08-10T13:31:16.802Z,2.40
2022-08-10T13:34:41.522Z,2.38
2022-08-10T13:36:39.111Z,2.10
2022-08-10T13:39:08.068Z,2.22
2022-08-10T13:41:40.791Z,2.33
2022-08-10T13:44:13.859Z,2.30
2022-08-10T13:46:49.163Z,2.20
2022-08-10T13:49:18.843Z,2.42
2022-08-10T13:51:56.422Z,2.45
2022-08-10T13:54:28.457Z,2.22
2022-08-10T13:56:57.701Z,2.40
2022-08-10T14:00:35.419Z,2.30
2022-08-10T14:02:26.050Z,2.35
2022-08-10T14:04:56.826Z,2.60
2022-08-10T14:07:26.108Z,2.45
2022-08-10T14:09:59.343Z,2.40
2022-08-10T14:12:33.600Z,2.53
2022-08-10T14:15:04.577Z,2.38
2022-08-10T14:17:34.221Z,2.58
2022-08-10T14:20:12.769Z,2.33
2022-08-10T14:22:42.720Z,2.50
2022-08-10T14:25:12.573Z,2.45
2022-08-10T14:28:02.158Z,2.30
2022-08-10T14:30:34.097Z,2.90
2022-08-10T14:33:04.643Z,2.40
2022-08-10T14:36:21.250Z,2.40
2022-08-10T14:38:28.502Z,2.95
2022-08-10T14:40:59.878Z,2.53
2022-08-10T14:43:30.297Z,2.35
2022-08-10T14:46:05.638Z,3.20
2022-08-10T14:48:40.126Z,2.35
2022-08-10T14:51:10.202Z,2.60
2022-08-10T14:53:42.180Z,2.63
2022-08-10T14:56:13.668Z,2.53
2022-08-10T14:59:05.769Z,2.28
2022-08-10T15:02:00.691Z,2.40
2022-08-10T15:04:28.833Z,2.35
2022-08-10T15:07:01.292Z,2.20
2022-08-10T15:10:01.612Z,2.78
2022-08-10T15:12:26.652Z,2.42
2022-08-10T15:15:00.844Z,2.42
2022-08-10T15:17:36.878Z,2.35
2022-08-10T15:20:15.715Z,2.42
2022-08-10T15:22:50.316Z,2.88
2022-08-10T15:25:24.315Z,2.60
2022-08-10T15:27:56.999Z,2.55
2022-08-10T15:30:30.872Z,2.67
2022-08-10T15:34:03.271Z,2.60
2022-08-10T15:36:32.413Z,2.22
2022-08-10T15:39:03.834Z,2.45
2022-08-10T15:41:58.540Z,2.58
2022-08-10T15:44:37.748Z,2.42
2022-08-10T15:47:09.207Z,2.97
2022-08-10T15:49:48.904Z,2.47
2022-08-10T15:52:59.905Z,2.83
2022-08-10T15:55:44.037Z,2.22
2022-08-10T15:58:13.861Z,2.17
2022-08-10T16:00:55.122Z,2.53
2022-08-10T16:03:27.150Z,2.28
2022-08-10T16:06:02.565Z,2.25
2022-08-10T16:08:55.792Z,2.45
2022-08-10T16:11:37.584Z,2.67
2022-08-10T16:14:22.631Z,2.40
2022-08-10T16:16:55.795Z,2.22
2022-08-10T16:19:26.215Z,2.13
2022-08-10T16:22:34.253Z,2.13
2022-08-10T16:24:53.668Z,2.28
2022-08-10T16:27:24.815Z,2.35
2022-08-10T16:29:59.367Z,2.45
2022-08-10T16:32:29.994Z,2.70
2022-08-10T16:35:00.385Z,2.20
2022-08-10T16:37:57.778Z,1.92
2022-08-10T16:40:26.492Z,2.30
2022-08-10T16:42:55.792Z,2.20
2022-08-10T16:45:31.815Z,2.30
2022-08-10T16:48:01.025Z,2.40
2022-08-10T16:50:30.730Z,2.25
2022-08-10T16:53:03.168Z,2.13
2022-08-10T16:55:47.595Z,2.17
2022-08-10T16:58:20.698Z,2.30
2022-08-10T17:00:51.091Z,2.10
2022-08-10T17:04:05.622Z,2.15
2022-08-10T17:06:20.362Z,2.22
2022-08-10T17:08:52.777Z,2.30
2022-08-10T17:11:23.308Z,2.33
2022-08-10T17:13:51.521Z,2.15
2022-08-10T17:16:21.660Z,2.60
2022-08-10T17:18:50.405Z,2.15
2022-08-10T17:21:21.755Z,2.30
2022-08-10T17:23:53.886Z,2.42
2022-08-10T17:26:35.397Z,2.20
2022-08-10T17:29:09.060Z,2.70
2022-08-10T17:31:54.984Z,2.10
2022-08-10T17:34:29.400Z,2.05
2022-08-10T17:36:59.099Z,2.25
2022-08-10T17:39:33.347Z,2.10
2022-08-10T17:42:03.211Z,2.10
2022-08-10T17:44:36.889Z,2.10
2022-08-10T17:47:10.550Z,2.40
2022-08-10T17:49:40.977Z,2.45
2022-08-10T17:52:11.422Z,2.20
2022-08-10T17:54:44.288Z,2.00
2022-08-10T17:57:17.895Z,2.22
2022-08-10T17:59:47.794Z,2.10
2022-08-10T18:02:18.937Z,2.25
2022-08-10T18:04:49.662Z,2.10
2022-08-10T18:07:19.096Z,2.20
2022-08-10T18:09:52.803Z,2.15
2022-08-10T18:12:31.976Z,2.20
2022-08-10T18:15:11.930Z,1.98
2022-08-10T18:17:44.499Z,2.33
2022-08-10T18:20:15.029Z,2.35
2022-08-10T18:22:47.415Z,2.38
2022-08-10T18:25:23.947Z,2.10
2022-08-10T18:28:03.990Z,2.20
2022-08-10T18:30:37.274Z,2.53
2022-08-10T18:33:11.966Z,2.45
2022-08-10T18:35:40.609Z,2.03
2022-08-10T18:38:09.939Z,1.95
2022-08-10T18:40:45.706Z,2.10
2022-08-10T18:44:06.537Z,2.38
2022-08-10T18:46:11.436Z,2.35
2022-08-10T18:48:43.376Z,2.20
2022-08-10T18:51:13.044Z,2.22
2022-08-10T18:53:48.149Z,2.50
2022-08-10T18:56:29.444Z,2.20
2022-08-10T18:59:09.672Z,2.35
2022-08-10T19:02:01.234Z,1.98
2022-08-10T19:04:44.474Z,2.10
2022-08-10T19:07:40.134Z,2.05
2022-08-10T19:10:15.224Z,2.17
2022-08-10T19:12:52.827Z,2.50
2022-08-10T19:15:28.992Z,2.25
2022-08-10T19:18:08.008Z,2.33
2022-08-10T19:20:42.279Z,2.15
2022-08-10T19:23:39.364Z,1.90
2022-08-10T19:26:43.861Z,1.95
2022-08-10T19:30:09.221Z,2.13
2022-08-10T19:32:25.541Z,1.98
2022-08-10T19:35:02.369Z,1.77
2022-08-10T19:37:38.203Z,2.10
2022-08-10T19:40:21.600Z,2.08
2022-08-10T19:43:20.583Z,2.17
2022-08-10T19:46:05.531Z,2.08
2022-08-10T19:48:42.619Z,2.28
2022-08-10T19:51:17.518Z,2.10
2022-08-10T19:53:54.444Z,1.85
2022-08-10T19:56:35.299Z,2.33
2022-08-10T19:59:10.241Z,2.15
2022-08-10T20:01:54.994Z,2.25
2022-08-10T20:04:31.921Z,2.10
2022-08-10T20:07:13.706Z,2.08
2022-08-10T20:09:47.694Z,2.00
2022-08-10T20:12:25.025Z,2.20
2022-08-10T20:15:05.351Z,2.17
2022-08-10T20:17:52.718Z,2.10
2022-08-10T20:20:31.243Z,1.80
2022-08-10T20:23:08.877Z,2.45
2022-08-10T20:25:37.109Z,2.22
2022-08-10T20:28:14.385Z,1.70
2022-08-10T20:30:46.376Z,2.20
2022-08-10T20:33:24.222Z,1.90
2022-08-10T20:36:00.336Z,1.90
2022-08-10T20:38:34.241Z,2.15
2022-08-10T20:41:19.262Z,2.28
2022-08-10T20:43:57.602Z,1.95
2022-08-10T20:46:31.014Z,2.33
2022-08-10T20:49:05.307Z,2.17
2022-08-10T20:51:58.041Z,2.65
2022-08-10T20:54:32.503Z,2.28
2022-08-10T20:57:53.556Z,3.17
2022-08-10T21:00:10.862Z,2.20
2022-08-10T21:03:06.940Z,2.90
2022-08-10T21:05:50.028Z,2.40
2022-08-10T21:08:30.074Z,2.20
2022-08-10T21:11:06.048Z,2.40
2022-08-10T21:13:58.188Z,2.40
2022-08-10T21:16:38.040Z,2.00
2022-08-10T21:19:53.715Z,1.80
2022-08-10T21:22:28.980Z,2.40
2022-08-10T21:25:02.185Z,1.80
2022-08-10T21:27:49.062Z,2.20
2022-08-10T21:30:36.839Z,1.80
2022-08-10T21:33:11.937Z,2.08
2022-08-10T21:35:44.387Z,1.85
2022-08-10T21:38:24.413Z,1.98
2022-08-10T21:41:56.508Z,2.20
2022-08-10T21:45:08.008Z,2.00
2022-08-10T21:48:16.516Z,2.35
2022-08-10T21:51:14.754Z,2.00
2022-08-10T21:54:11.662Z,2.45
2022-08-10T21:57:08.259Z,1.92
2022-08-10T21:59:58.843Z,2.25
2022-08-10T22:02:50.421Z,2.00
2022-08-10T22:05:55.216Z,1.83
2022-08-10T22:08:44.548Z,2.10
2022-08-10T22:11:37.797Z,2.00
2022-08-10T22:14:25.798Z,1.92
2022-08-10T22:18:03.440Z,2.05
2022-08-10T22:20:27.076Z,2.10
2022-08-10T22:23:28.927Z,2.72
2022-08-10T22:26:25.230Z,2.22
2022-08-10T22:29:14.298Z,2.50
2022-08-10T22:32:15.280Z,2.63
2022-08-10T22:35:15.982Z,2.20
2022-08-10T22:38:14.256Z,2.28
2022-08-10T22:41:03.426Z,2.42
2022-08-10T22:43:51.864Z,2.13
2022-08-10T22:46:42.425Z,2.45
2022-08-10T22:49:10.068Z,2.67
2022-08-10T22:51:48.513Z,2.20
2022-08-10T22:54:40.191Z,2.30
2022-08-10T22:57:30.621Z,2.22
2022-08-10T22:59:59.023Z,2.10
2022-08-10T23:02:34.948Z,2.17
2022-08-10T23:05:09.172Z,2.20
2022-08-10T23:07:46.696Z,2.38
2022-08-10T23:10:16.695Z,2.33
2022-08-10T23:12:50.656Z,2.10
2022-08-10T23:15:43.656Z,2.85
2022-08-10T23:18:36.508Z,2.35
2022-08-10T23:21:05.628Z,2.53
2022-08-10T23:23:40.241Z,2.25
2022-08-10T23:26:12.838Z,2.75
2022-08-10T23:29:04.234Z,2.45
2022-08-10T23:32:00.640Z,2.50
2022-08-10T23:34:24.041Z,2.40
2022-08-10T23:36:53.804Z,2.50
2022-08-10T23:39:29.150Z,2.10
2022-08-10T23:42:06.951Z,2.47
2022-08-10T23:44:39.085Z,2.33
2022-08-10T23:47:08.523Z,2.15
2022-08-10T23:49:39.669Z,2.22
2022-08-10T23:52:13.011Z,2.80
2022-08-10T23:54:45.993Z,2.60
2022-08-10T23:57:18.300Z,2.40
2022-08-10T23:59:56.951Z,2.65
